sensor_id;sensor_type;location;lat;lon;timestamp;temperature;humidity
30336;DHT22;17142;47.990;7.846;2022-12-20T00:00:14;5.70;99.90
30336;DHT22;17142;47.990;7.846;2022-12-20T00:02:42;5.60;99.90
30336;DHT22;17142;47.990;7.846;2022-12-20T00:05:08;5.50;99.90
30336;DHT22;17142;47.990;7.846;2022-12-20T00:07:33;5.50;99.90
30336;DHT22;17142;47.990;7.846;2022-12-20T00:10:02;5.50;99.90
30336;DHT22;17142;47.990;7.846;2022-12-20T00:12:27;5.50;99.90
30336;DHT22;17142;47.990;7.846;2022-12-20T00:14:53;5.50;99.90
30336;DHT22;17142;47.990;7.846;2022-12-20T00:17:18;5.60;99.90
30336;DHT22;17142;47.990;7.846;2022-12-20T00:19:46;5.50;99.90
30336;DHT22;17142;47.990;7.846;2022-12-20T00:22:12;5.50;99.90
30336;DHT22;17142;47.990;7.846;2022-12-20T00:24:38;5.60;99.90
30336;DHT22;17142;47.990;7.846;2022-12-20T00:27:03;5.60;99.90
30336;DHT22;17142;47.990;7.846;2022-12-20T00:29:29;5.60;99.90
30336;DHT22;17142;47.990;7.846;2022-12-20T00:31:54;5.60;99.90
30336;DHT22;17142;47.990;7.846;2022-12-20T00:34:20;5.60;99.90
30336;DHT22;17142;47.990;7.846;2022-12-20T00:36:45;5.60;99.90
30336;DHT22;17142;47.990;7.846;2022-12-20T00:39:11;5.70;99.90
30336;DHT22;17142;47.990;7.846;2022-12-20T00:41:37;5.80;99.90
30336;DHT22;17142;47.990;7.846;2022-12-20T00:44:04;5.90;99.90
30336;DHT22;17142;47.990;7.846;2022-12-20T00:46:30;5.90;99.90
30336;DHT22;17142;47.990;7.846;2022-12-20T00:48:56;6.00;99.90
30336;DHT22;17142;47.990;7.846;2022-12-20T00:51:26;6.10;99.90
30336;DHT22;17142;47.990;7.846;2022-12-20T00:53:52;6.10;99.90
30336;DHT22;17142;47.990;7.846;2022-12-20T00:56:21;6.10;99.90
30336;DHT22;17142;47.990;7.846;2022-12-20T00:58:47;6.00;99.90
30336;DHT22;17142;47.990;7.846;2022-12-20T01:01:23;6.00;99.90
30336;DHT22;17142;47.990;7.846;2022-12-20T01:03:49;6.10;99.90
30336;DHT22;17142;47.990;7.846;2022-12-20T01:06:16;6.20;99.90
30336;DHT22;17142;47.990;7.846;2022-12-20T01:08:44;6.20;99.90
30336;DHT22;17142;47.990;7.846;2022-12-20T01:11:14;6.10;99.90
30336;DHT22;17142;47.990;7.846;2022-12-20T01:13:43;6.00;99.90
30336;DHT22;17142;47.990;7.846;2022-12-20T01:16:25;5.90;99.90
30336;DHT22;17142;47.990;7.846;2022-12-20T01:18:51;5.80;99.90
30336;DHT22;17142;47.990;7.846;2022-12-20T01:21:19;5.80;99.90
30336;DHT22;17142;47.990;7.846;2022-12-20T01:23:45;5.80;99.90
30336;DHT22;17142;47.990;7.846;2022-12-20T01:26:14;5.80;99.90
30336;DHT22;17142;47.990;7.846;2022-12-20T01:28:41;5.80;99.90
30336;DHT22;17142;47.990;7.846;2022-12-20T01:31:12;5.80;99.90
30336;DHT22;17142;47.990;7.846;2022-12-20T01:33:38;5.80;99.90
30336;DHT22;17142;47.990;7.846;2022-12-20T01:36:07;5.80;99.90
30336;DHT22;17142;47.990;7.846;2022-12-20T01:38:35;5.90;99.90
30336;DHT22;17142;47.990;7.846;2022-12-20T01:41:06;5.90;99.90
30336;DHT22;17142;47.990;7.846;2022-12-20T01:46:17;5.80;99.90
30336;DHT22;17142;47.990;7.846;2022-12-20T01:51:31;5.80;99.90
30336;DHT22;17142;47.990;7.846;2022-12-20T01:54:12;5.70;99.90
30336;DHT22;17142;47.990;7.846;2022-12-20T01:56:40;5.60;99.90
30336;DHT22;17142;47.990;7.846;2022-12-20T01:59:07;5.70;99.90
30336;DHT22;17142;47.990;7.846;2022-12-20T02:01:36;5.90;99.90
30336;DHT22;17142;47.990;7.846;2022-12-20T02:04:04;5.90;99.90
30336;DHT22;17142;47.990;7.846;2022-12-20T02:06:32;6.00;99.90
30336;DHT22;17142;47.990;7.846;2022-12-20T02:09:02;6.00;99.90
30336;DHT22;17142;47.990;7.846;2022-12-20T02:11:46;6.00;99.90
30336;DHT22;17142;47.990;7.846;2022-12-20T02:28:15;6.10;99.90
30336;DHT22;17142;47.990;7.846;2022-12-20T02:30:47;6.20;99.90
30336;DHT22;17142;47.990;7.846;2022-12-20T02:33:16;6.10;99.90
30336;DHT22;17142;47.990;7.846;2022-12-20T02:35:43;6.10;99.90
30336;DHT22;17142;47.990;7.846;2022-12-20T02:38:43;6.10;99.90
30336;DHT22;17142;47.990;7.846;2022-12-20T02:43:43;6.20;99.90
30336;DHT22;17142;47.990;7.846;2022-12-20T02:46:31;6.20;99.90
30336;DHT22;17142;47.990;7.846;2022-12-20T02:49:04;6.20;99.90
30336;DHT22;17142;47.990;7.846;2022-12-20T02:51:33;6.20;99.90
30336;DHT22;17142;47.990;7.846;2022-12-20T02:53:59;6.40;99.90
30336;DHT22;17142;47.990;7.846;2022-12-20T02:59:06;6.40;99.90
30336;DHT22;17142;47.990;7.846;2022-12-20T03:01:39;6.50;99.90
30336;DHT22;17142;47.990;7.846;2022-12-20T03:04:07;6.60;99.90
30336;DHT22;17142;47.990;7.846;2022-12-20T03:06:33;6.60;99.90
30336;DHT22;17142;47.990;7.846;2022-12-20T03:08:59;6.50;99.90
30336;DHT22;17142;47.990;7.846;2022-12-20T03:11:24;6.50;99.90
30336;DHT22;17142;47.990;7.846;2022-12-20T03:13:52;6.40;99.90
30336;DHT22;17142;47.990;7.846;2022-12-20T03:16:18;6.40;99.90
30336;DHT22;17142;47.990;7.846;2022-12-20T03:18:43;6.50;99.90
30336;DHT22;17142;47.990;7.846;2022-12-20T03:21:12;6.60;99.90
30336;DHT22;17142;47.990;7.846;2022-12-20T03:23:38;6.70;99.90
30336;DHT22;17142;47.990;7.846;2022-12-20T03:26:03;6.70;99.90
30336;DHT22;17142;47.990;7.846;2022-12-20T03:28:29;6.70;99.90
30336;DHT22;17142;47.990;7.846;2022-12-20T03:30:57;6.60;99.90
30336;DHT22;17142;47.990;7.846;2022-12-20T03:33:23;6.50;99.90
30336;DHT22;17142;47.990;7.846;2022-12-20T03:35:48;6.60;99.90
30336;DHT22;17142;47.990;7.846;2022-12-20T03:38:16;6.60;99.90
30336;DHT22;17142;47.990;7.846;2022-12-20T03:40:44;6.60;99.90
30336;DHT22;17142;47.990;7.846;2022-12-20T03:43:10;6.60;99.90
30336;DHT22;17142;47.990;7.846;2022-12-20T03:45:35;6.60;99.90
30336;DHT22;17142;47.990;7.846;2022-12-20T03:48:01;6.60;99.90
30336;DHT22;17142;47.990;7.846;2022-12-20T03:50:26;6.60;99.90
30336;DHT22;17142;47.990;7.846;2022-12-20T03:52:52;6.60;99.90
30336;DHT22;17142;47.990;7.846;2022-12-20T03:55:17;6.70;99.90
30336;DHT22;17142;47.990;7.846;2022-12-20T03:57:46;6.80;99.90
30336;DHT22;17142;47.990;7.846;2022-12-20T04:00:12;6.90;99.90
30336;DHT22;17142;47.990;7.846;2022-12-20T04:02:37;6.90;99.90
30336;DHT22;17142;47.990;7.846;2022-12-20T04:05:06;6.80;99.90
30336;DHT22;17142;47.990;7.846;2022-12-20T04:07:34;6.80;99.90
30336;DHT22;17142;47.990;7.846;2022-12-20T04:09:59;6.80;99.90
30336;DHT22;17142;47.990;7.846;2022-12-20T04:12:27;6.80;99.90
30336;DHT22;17142;47.990;7.846;2022-12-20T04:14:52;6.80;99.90
30336;DHT22;17142;47.990;7.846;2022-12-20T04:17:18;6.70;99.90
30336;DHT22;17142;47.990;7.846;2022-12-20T04:19:44;6.80;99.90
30336;DHT22;17142;47.990;7.846;2022-12-20T04:22:09;6.70;99.90
30336;DHT22;17142;47.990;7.846;2022-12-20T04:24:39;6.70;99.90
30336;DHT22;17142;47.990;7.846;2022-12-20T04:27:05;6.70;99.90
30336;DHT22;17142;47.990;7.846;2022-12-20T04:29:35;6.70;99.90
30336;DHT22;17142;47.990;7.846;2022-12-20T04:32:03;6.70;99.90
30336;DHT22;17142;47.990;7.846;2022-12-20T04:34:31;6.70;99.90
30336;DHT22;17142;47.990;7.846;2022-12-20T04:36:59;6.70;99.90
30336;DHT22;17142;47.990;7.846;2022-12-20T04:39:24;6.70;99.90
30336;DHT22;17142;47.990;7.846;2022-12-20T04:41:50;6.80;99.90
30336;DHT22;17142;47.990;7.846;2022-12-20T04:44:15;6.80;99.90
30336;DHT22;17142;47.990;7.846;2022-12-20T04:46:41;6.80;99.90
30336;DHT22;17142;47.990;7.846;2022-12-20T04:49:07;6.70;99.90
30336;DHT22;17142;47.990;7.846;2022-12-20T04:51:33;6.70;99.90
30336;DHT22;17142;47.990;7.846;2022-12-20T04:54:01;6.60;99.90
30336;DHT22;17142;47.990;7.846;2022-12-20T04:56:29;6.60;99.90
30336;DHT22;17142;47.990;7.846;2022-12-20T04:58:57;6.70;99.90
30336;DHT22;17142;47.990;7.846;2022-12-20T05:01:23;6.60;99.90
30336;DHT22;17142;47.990;7.846;2022-12-20T05:03:52;6.60;99.90
30336;DHT22;17142;47.990;7.846;2022-12-20T05:06:20;6.50;99.90
30336;DHT22;17142;47.990;7.846;2022-12-20T05:08:46;6.50;99.90
30336;DHT22;17142;47.990;7.846;2022-12-20T05:11:11;6.40;99.90
30336;DHT22;17142;47.990;7.846;2022-12-20T05:13:37;6.40;99.90
30336;DHT22;17142;47.990;7.846;2022-12-20T05:16:03;6.50;99.90
30336;DHT22;17142;47.990;7.846;2022-12-20T05:18:29;6.50;99.90
30336;DHT22;17142;47.990;7.846;2022-12-20T05:20:56;6.60;99.90
30336;DHT22;17142;47.990;7.846;2022-12-20T05:23:43;6.70;99.90
30336;DHT22;17142;47.990;7.846;2022-12-20T05:26:30;6.70;99.90
30336;DHT22;17142;47.990;7.846;2022-12-20T05:28:56;6.70;99.90
30336;DHT22;17142;47.990;7.846;2022-12-20T05:31:21;6.70;99.90
30336;DHT22;17142;47.990;7.846;2022-12-20T05:33:47;6.80;99.90
30336;DHT22;17142;47.990;7.846;2022-12-20T05:36:12;7.00;99.90
30336;DHT22;17142;47.990;7.846;2022-12-20T05:38:38;7.00;99.90
30336;DHT22;17142;47.990;7.846;2022-12-20T05:41:04;7.00;99.90
30336;DHT22;17142;47.990;7.846;2022-12-20T05:43:31;7.00;99.90
30336;DHT22;17142;47.990;7.846;2022-12-20T05:45:57;6.90;99.90
30336;DHT22;17142;47.990;7.846;2022-12-20T05:48:27;6.80;99.90
30336;DHT22;17142;47.990;7.846;2022-12-20T05:50:53;6.80;99.90
30336;DHT22;17142;47.990;7.846;2022-12-20T05:53:18;6.80;99.90
30336;DHT22;17142;47.990;7.846;2022-12-20T05:55:47;6.80;99.90
30336;DHT22;17142;47.990;7.846;2022-12-20T05:58:13;6.80;99.90
30336;DHT22;17142;47.990;7.846;2022-12-20T06:00:44;6.80;99.90
30336;DHT22;17142;47.990;7.846;2022-12-20T06:03:10;6.80;99.90
30336;DHT22;17142;47.990;7.846;2022-12-20T06:05:40;6.90;99.90
30336;DHT22;17142;47.990;7.846;2022-12-20T06:08:08;7.00;99.90
30336;DHT22;17142;47.990;7.846;2022-12-20T06:10:36;7.10;99.90
30336;DHT22;17142;47.990;7.846;2022-12-20T06:13:03;7.10;99.90
30336;DHT22;17142;47.990;7.846;2022-12-20T06:15:30;7.10;99.90
30336;DHT22;17142;47.990;7.846;2022-12-20T06:17:55;7.20;99.90
30336;DHT22;17142;47.990;7.846;2022-12-20T06:20:21;7.30;99.90
30336;DHT22;17142;47.990;7.846;2022-12-20T06:22:47;7.30;99.90
30336;DHT22;17142;47.990;7.846;2022-12-20T06:25:15;7.40;99.90
30336;DHT22;17142;47.990;7.846;2022-12-20T06:27:44;7.30;99.90
30336;DHT22;17142;47.990;7.846;2022-12-20T06:30:10;7.30;99.90
30336;DHT22;17142;47.990;7.846;2022-12-20T06:32:35;7.30;99.90
30336;DHT22;17142;47.990;7.846;2022-12-20T06:35:01;7.30;99.90
30336;DHT22;17142;47.990;7.846;2022-12-20T06:37:27;7.30;99.90
30336;DHT22;17142;47.990;7.846;2022-12-20T06:39:53;7.30;99.90
30336;DHT22;17142;47.990;7.846;2022-12-20T06:42:18;7.30;99.90
30336;DHT22;17142;47.990;7.846;2022-12-20T06:44:44;7.40;99.90
30336;DHT22;17142;47.990;7.846;2022-12-20T06:47:12;7.40;99.90
30336;DHT22;17142;47.990;7.846;2022-12-20T06:49:37;7.40;99.90
30336;DHT22;17142;47.990;7.846;2022-12-20T06:52:03;7.40;99.90
30336;DHT22;17142;47.990;7.846;2022-12-20T06:54:29;7.40;99.90
30336;DHT22;17142;47.990;7.846;2022-12-20T06:56:57;7.30;99.90
30336;DHT22;17142;47.990;7.846;2022-12-20T06:59:23;7.30;99.90
30336;DHT22;17142;47.990;7.846;2022-12-20T07:01:51;7.30;99.90
30336;DHT22;17142;47.990;7.846;2022-12-20T07:04:16;7.20;99.90
30336;DHT22;17142;47.990;7.846;2022-12-20T07:06:42;7.20;99.90
30336;DHT22;17142;47.990;7.846;2022-12-20T07:09:10;7.20;99.90
30336;DHT22;17142;47.990;7.846;2022-12-20T07:11:36;7.30;99.90
30336;DHT22;17142;47.990;7.846;2022-12-20T07:14:02;7.30;99.90
30336;DHT22;17142;47.990;7.846;2022-12-20T07:16:28;7.20;99.90
30336;DHT22;17142;47.990;7.846;2022-12-20T07:18:54;7.20;99.90
30336;DHT22;17142;47.990;7.846;2022-12-20T07:21:20;7.10;99.90
30336;DHT22;17142;47.990;7.846;2022-12-20T07:23:46;7.10;99.90
30336;DHT22;17142;47.990;7.846;2022-12-20T07:26:13;7.00;99.90
30336;DHT22;17142;47.990;7.846;2022-12-20T07:28:39;6.90;99.90
30336;DHT22;17142;47.990;7.846;2022-12-20T07:31:05;6.90;99.90
30336;DHT22;17142;47.990;7.846;2022-12-20T07:33:31;6.90;99.90
30336;DHT22;17142;47.990;7.846;2022-12-20T07:36:07;7.00;99.90
30336;DHT22;17142;47.990;7.846;2022-12-20T07:38:34;7.10;99.90
30336;DHT22;17142;47.990;7.846;2022-12-20T07:41:08;7.10;99.90
30336;DHT22;17142;47.990;7.846;2022-12-20T07:43:36;7.10;99.90
30336;DHT22;17142;47.990;7.846;2022-12-20T07:46:08;7.10;99.90
30336;DHT22;17142;47.990;7.846;2022-12-20T07:48:36;7.10;99.90
30336;DHT22;17142;47.990;7.846;2022-12-20T07:51:06;7.10;99.90
30336;DHT22;17142;47.990;7.846;2022-12-20T07:53:34;7.10;99.90
30336;DHT22;17142;47.990;7.846;2022-12-20T07:56:04;7.10;99.90
30336;DHT22;17142;47.990;7.846;2022-12-20T07:58:32;7.00;99.90
30336;DHT22;17142;47.990;7.846;2022-12-20T08:01:00;7.00;99.90
30336;DHT22;17142;47.990;7.846;2022-12-20T08:03:34;7.00;99.90
30336;DHT22;17142;47.990;7.846;2022-12-20T08:06:05;7.00;99.90
30336;DHT22;17142;47.990;7.846;2022-12-20T08:08:32;7.00;99.90
30336;DHT22;17142;47.990;7.846;2022-12-20T08:11:02;7.00;99.90
30336;DHT22;17142;47.990;7.846;2022-12-20T08:13:29;7.10;99.90
30336;DHT22;17142;47.990;7.846;2022-12-20T08:15:56;7.20;99.90
30336;DHT22;17142;47.990;7.846;2022-12-20T08:18:21;7.20;99.90
30336;DHT22;17142;47.990;7.846;2022-12-20T08:20:47;7.20;99.90
30336;DHT22;17142;47.990;7.846;2022-12-20T08:23:12;7.30;99.90
30336;DHT22;17142;47.990;7.846;2022-12-20T08:25:38;7.40;99.90
30336;DHT22;17142;47.990;7.846;2022-12-20T08:28:04;7.50;99.90
30336;DHT22;17142;47.990;7.846;2022-12-20T08:30:29;7.50;99.90
30336;DHT22;17142;47.990;7.846;2022-12-20T08:32:55;7.50;99.90
30336;DHT22;17142;47.990;7.846;2022-12-20T08:35:23;7.60;99.90
30336;DHT22;17142;47.990;7.846;2022-12-20T08:37:52;7.80;99.90
30336;DHT22;17142;47.990;7.846;2022-12-20T08:40:19;7.80;99.90
30336;DHT22;17142;47.990;7.846;2022-12-20T08:42:47;7.80;99.90
30336;DHT22;17142;47.990;7.846;2022-12-20T08:45:13;7.80;99.90
30336;DHT22;17142;47.990;7.846;2022-12-20T08:47:42;7.90;99.90
30336;DHT22;17142;47.990;7.846;2022-12-20T08:50:08;7.90;99.90
30336;DHT22;17142;47.990;7.846;2022-12-20T08:52:34;8.10;99.90
30336;DHT22;17142;47.990;7.846;2022-12-20T08:54:59;8.30;99.90
30336;DHT22;17142;47.990;7.846;2022-12-20T08:57:25;8.40;99.90
30336;DHT22;17142;47.990;7.846;2022-12-20T08:59:50;8.50;99.90
30336;DHT22;17142;47.990;7.846;2022-12-20T09:02:16;8.60;99.90
30336;DHT22;17142;47.990;7.846;2022-12-20T09:04:44;8.70;99.90
30336;DHT22;17142;47.990;7.846;2022-12-20T09:07:10;8.70;99.90
30336;DHT22;17142;47.990;7.846;2022-12-20T09:09:36;8.80;99.90
30336;DHT22;17142;47.990;7.846;2022-12-20T09:12:02;8.90;99.90
30336;DHT22;17142;47.990;7.846;2022-12-20T09:14:29;8.90;99.90
30336;DHT22;17142;47.990;7.846;2022-12-20T09:16:55;8.90;99.90
30336;DHT22;17142;47.990;7.846;2022-12-20T09:19:21;8.90;99.90
30336;DHT22;17142;47.990;7.846;2022-12-20T09:21:46;8.90;99.90
30336;DHT22;17142;47.990;7.846;2022-12-20T09:24:12;8.90;99.90
30336;DHT22;17142;47.990;7.846;2022-12-20T09:26:40;8.90;99.90
30336;DHT22;17142;47.990;7.846;2022-12-20T09:29:05;8.90;99.90
30336;DHT22;17142;47.990;7.846;2022-12-20T09:31:31;8.90;99.90
30336;DHT22;17142;47.990;7.846;2022-12-20T09:34:00;8.90;99.90
30336;DHT22;17142;47.990;7.846;2022-12-20T09:36:27;8.90;99.90
30336;DHT22;17142;47.990;7.846;2022-12-20T09:38:53;9.00;99.90
30336;DHT22;17142;47.990;7.846;2022-12-20T09:43:53;9.10;99.90
30336;DHT22;17142;47.990;7.846;2022-12-20T09:46:20;9.20;99.90
30336;DHT22;17142;47.990;7.846;2022-12-20T09:48:49;9.30;99.90
30336;DHT22;17142;47.990;7.846;2022-12-20T09:59:27;9.30;99.90
30336;DHT22;17142;47.990;7.846;2022-12-20T10:01:53;9.30;99.90
30336;DHT22;17142;47.990;7.846;2022-12-20T10:17:41;9.70;99.90
30336;DHT22;17142;47.990;7.846;2022-12-20T10:25:31;9.90;99.90
30336;DHT22;17142;47.990;7.846;2022-12-20T10:28:01;9.90;99.90
30336;DHT22;17142;47.990;7.846;2022-12-20T10:30:28;10.00;99.90
30336;DHT22;17142;47.990;7.846;2022-12-20T10:32:56;10.00;99.90
30336;DHT22;17142;47.990;7.846;2022-12-20T10:35:39;10.00;99.90
30336;DHT22;17142;47.990;7.846;2022-12-20T10:38:11;10.00;99.90
30336;DHT22;17142;47.990;7.846;2022-12-20T10:40:42;10.00;99.90
30336;DHT22;17142;47.990;7.846;2022-12-20T10:43:22;10.00;99.90
30336;DHT22;17142;47.990;7.846;2022-12-20T10:46:00;10.10;99.90
30336;DHT22;17142;47.990;7.846;2022-12-20T10:48:30;10.40;99.90
30336;DHT22;17142;47.990;7.846;2022-12-20T10:53:33;11.00;99.90
30336;DHT22;17142;47.990;7.846;2022-12-20T10:58:38;11.00;99.90
30336;DHT22;17142;47.990;7.846;2022-12-20T11:01:16;10.90;99.90
30336;DHT22;17142;47.990;7.846;2022-12-20T11:03:51;10.90;99.90
30336;DHT22;17142;47.990;7.846;2022-12-20T11:06:22;11.00;99.90
30336;DHT22;17142;47.990;7.846;2022-12-20T11:08:48;11.10;99.90
30336;DHT22;17142;47.990;7.846;2022-12-20T11:11:21;11.20;99.90
30336;DHT22;17142;47.990;7.846;2022-12-20T11:13:48;11.40;99.90
30336;DHT22;17142;47.990;7.846;2022-12-20T11:16:34;11.60;99.90
30336;DHT22;17142;47.990;7.846;2022-12-20T11:19:42;11.80;99.90
30336;DHT22;17142;47.990;7.846;2022-12-20T11:33:59;11.70;99.90
30336;DHT22;17142;47.990;7.846;2022-12-20T11:41:59;11.70;99.90
30336;DHT22;17142;47.990;7.846;2022-12-20T11:44:51;11.70;99.90
30336;DHT22;17142;47.990;7.846;2022-12-20T11:52:44;11.80;99.90
30336;DHT22;17142;47.990;7.846;2022-12-20T11:57:53;11.80;99.90
30336;DHT22;17142;47.990;7.846;2022-12-20T12:00:22;11.80;99.90
30336;DHT22;17142;47.990;7.846;2022-12-20T12:03:08;11.80;99.90
30336;DHT22;17142;47.990;7.846;2022-12-20T12:05:54;11.90;99.90
30336;DHT22;17142;47.990;7.846;2022-12-20T12:08:42;12.00;99.90
30336;DHT22;17142;47.990;7.846;2022-12-20T12:11:20;12.20;99.90
30336;DHT22;17142;47.990;7.846;2022-12-20T12:13:47;12.30;99.90
30336;DHT22;17142;47.990;7.846;2022-12-20T12:18:43;12.40;99.90
30336;DHT22;17142;47.990;7.846;2022-12-20T12:21:26;12.40;99.90
30336;DHT22;17142;47.990;7.846;2022-12-20T12:26:34;12.60;99.90
30336;DHT22;17142;47.990;7.846;2022-12-20T12:29:11;12.60;99.90
30336;DHT22;17142;47.990;7.846;2022-12-20T12:31:45;12.60;99.90
30336;DHT22;17142;47.990;7.846;2022-12-20T12:40:04;12.80;99.90
30336;DHT22;17142;47.990;7.846;2022-12-20T12:47:43;13.50;99.90
30336;DHT22;17142;47.990;7.846;2022-12-20T12:50:36;13.70;99.90
30336;DHT22;17142;47.990;7.846;2022-12-20T12:53:06;13.90;99.90
30336;DHT22;17142;47.990;7.846;2022-12-20T12:56:28;13.90;99.90
30336;DHT22;17142;47.990;7.846;2022-12-20T13:04:29;13.90;99.90
30336;DHT22;17142;47.990;7.846;2022-12-20T13:07:01;13.90;99.90
30336;DHT22;17142;47.990;7.846;2022-12-20T13:11:54;13.90;99.90
30336;DHT22;17142;47.990;7.846;2022-12-20T13:16:46;14.00;99.90
30336;DHT22;17142;47.990;7.846;2022-12-20T13:19:38;14.10;99.90
30336;DHT22;17142;47.990;7.846;2022-12-20T13:24:37;14.00;99.90
30336;DHT22;17142;47.990;7.846;2022-12-20T13:38:59;13.40;99.90
30336;DHT22;17142;47.990;7.846;2022-12-20T13:44:00;13.20;99.90
30336;DHT22;17142;47.990;7.846;2022-12-20T13:46:39;13.20;99.90
30336;DHT22;17142;47.990;7.846;2022-12-20T13:49:10;13.10;99.90
30336;DHT22;17142;47.990;7.846;2022-12-20T13:51:36;13.10;99.90
30336;DHT22;17142;47.990;7.846;2022-12-20T13:54:05;13.20;99.90
30336;DHT22;17142;47.990;7.846;2022-12-20T14:01:57;13.50;99.90
30336;DHT22;17142;47.990;7.846;2022-12-20T14:04:25;13.60;99.90
30336;DHT22;17142;47.990;7.846;2022-12-20T14:06:57;13.60;99.90
30336;DHT22;17142;47.990;7.846;2022-12-20T14:09:31;13.60;99.90
30336;DHT22;17142;47.990;7.846;2022-12-20T14:14:46;13.50;99.90
30336;DHT22;17142;47.990;7.846;2022-12-20T14:17:29;13.60;99.90
30336;DHT22;17142;47.990;7.846;2022-12-20T14:22:28;13.60;99.90
30336;DHT22;17142;47.990;7.846;2022-12-20T14:24:54;13.60;99.90
30336;DHT22;17142;47.990;7.846;2022-12-20T14:27:23;13.50;99.90
30336;DHT22;17142;47.990;7.846;2022-12-20T14:29:50;13.40;99.90
30336;DHT22;17142;47.990;7.846;2022-12-20T14:32:22;13.30;99.90
30336;DHT22;17142;47.990;7.846;2022-12-20T14:34:48;13.20;99.90
30336;DHT22;17142;47.990;7.846;2022-12-20T14:42:38;13.00;99.90
30336;DHT22;17142;47.990;7.846;2022-12-20T14:45:25;13.00;99.90
30336;DHT22;17142;47.990;7.846;2022-12-20T14:48:03;12.80;99.90
30336;DHT22;17142;47.990;7.846;2022-12-20T14:50:39;12.70;99.90
30336;DHT22;17142;47.990;7.846;2022-12-20T14:53:21;12.60;99.90
30336;DHT22;17142;47.990;7.846;2022-12-20T14:55:50;12.40;99.90
30336;DHT22;17142;47.990;7.846;2022-12-20T14:58:24;12.30;99.90
30336;DHT22;17142;47.990;7.846;2022-12-20T15:00:57;12.20;99.90
30336;DHT22;17142;47.990;7.846;2022-12-20T15:03:26;12.10;99.90
30336;DHT22;17142;47.990;7.846;2022-12-20T15:05:56;12.00;99.90
30336;DHT22;17142;47.990;7.846;2022-12-20T15:08:30;11.90;99.90
30336;DHT22;17142;47.990;7.846;2022-12-20T15:13:42;12.10;99.90
30336;DHT22;17142;47.990;7.846;2022-12-20T15:16:18;12.10;99.90
30336;DHT22;17142;47.990;7.846;2022-12-20T15:18:48;11.90;99.90
30336;DHT22;17142;47.990;7.846;2022-12-20T15:21:30;11.80;99.90
30336;DHT22;17142;47.990;7.846;2022-12-20T15:24:00;11.60;99.90
30336;DHT22;17142;47.990;7.846;2022-12-20T15:26:30;11.50;99.90
30336;DHT22;17142;47.990;7.846;2022-12-20T15:28:56;11.40;99.90
30336;DHT22;17142;47.990;7.846;2022-12-20T15:31:22;11.50;99.90
30336;DHT22;17142;47.990;7.846;2022-12-20T15:33:53;11.50;99.90
30336;DHT22;17142;47.990;7.846;2022-12-20T15:36:28;11.40;99.90
30336;DHT22;17142;47.990;7.846;2022-12-20T15:38:55;11.30;99.90
30336;DHT22;17142;47.990;7.846;2022-12-20T15:41:30;11.20;99.90
30336;DHT22;17142;47.990;7.846;2022-12-20T15:44:03;11.20;99.90
30336;DHT22;17142;47.990;7.846;2022-12-20T15:46:30;11.00;99.90
30336;DHT22;17142;47.990;7.846;2022-12-20T15:48:56;11.00;99.90
30336;DHT22;17142;47.990;7.846;2022-12-20T15:53:50;11.00;99.90
30336;DHT22;17142;47.990;7.846;2022-12-20T15:56:19;11.00;99.90
30336;DHT22;17142;47.990;7.846;2022-12-20T15:58:46;10.90;99.90
30336;DHT22;17142;47.990;7.846;2022-12-20T16:01:17;10.90;99.90
30336;DHT22;17142;47.990;7.846;2022-12-20T16:03:42;10.80;99.90
30336;DHT22;17142;47.990;7.846;2022-12-20T16:06:10;10.70;99.90
30336;DHT22;17142;47.990;7.846;2022-12-20T16:08:41;10.70;99.90
30336;DHT22;17142;47.990;7.846;2022-12-20T16:11:19;10.60;99.90
30336;DHT22;17142;47.990;7.846;2022-12-20T16:13:46;10.60;99.90
30336;DHT22;17142;47.990;7.846;2022-12-20T16:16:20;10.70;99.90
30336;DHT22;17142;47.990;7.846;2022-12-20T16:18:45;10.70;99.90
30336;DHT22;17142;47.990;7.846;2022-12-20T16:21:19;10.80;99.90
30336;DHT22;17142;47.990;7.846;2022-12-20T16:23:46;10.90;99.90
30336;DHT22;17142;47.990;7.846;2022-12-20T16:26:18;10.90;99.90
30336;DHT22;17142;47.990;7.846;2022-12-20T16:28:46;10.80;99.90
30336;DHT22;17142;47.990;7.846;2022-12-20T16:31:24;10.70;99.90
30336;DHT22;17142;47.990;7.846;2022-12-20T16:33:51;10.70;99.90
30336;DHT22;17142;47.990;7.846;2022-12-20T16:36:17;10.60;99.90
30336;DHT22;17142;47.990;7.846;2022-12-20T16:38:43;10.50;99.90
30336;DHT22;17142;47.990;7.846;2022-12-20T16:41:22;10.30;99.90
30336;DHT22;17142;47.990;7.846;2022-12-20T16:43:53;10.20;99.90
30336;DHT22;17142;47.990;7.846;2022-12-20T16:46:20;10.10;99.90
30336;DHT22;17142;47.990;7.846;2022-12-20T16:48:46;10.10;99.90
30336;DHT22;17142;47.990;7.846;2022-12-20T16:53:50;10.10;99.90
30336;DHT22;17142;47.990;7.846;2022-12-20T16:56:16;10.10;99.90
30336;DHT22;17142;47.990;7.846;2022-12-20T16:58:42;10.10;99.90
30336;DHT22;17142;47.990;7.846;2022-12-20T17:01:15;10.00;99.90
30336;DHT22;17142;47.990;7.846;2022-12-20T17:03:45;10.00;99.90
30336;DHT22;17142;47.990;7.846;2022-12-20T17:06:17;10.00;99.90
30336;DHT22;17142;47.990;7.846;2022-12-20T17:08:43;9.90;99.90
30336;DHT22;17142;47.990;7.846;2022-12-20T17:13:43;9.70;99.90
30336;DHT22;17142;47.990;7.846;2022-12-20T17:16:10;9.70;99.90
30336;DHT22;17142;47.990;7.846;2022-12-20T17:18:41;9.70;99.90
30336;DHT22;17142;47.990;7.846;2022-12-20T17:21:26;9.80;99.90
30336;DHT22;17142;47.990;7.846;2022-12-20T17:23:56;9.80;99.90
30336;DHT22;17142;47.990;7.846;2022-12-20T17:26:24;9.80;99.90
30336;DHT22;17142;47.990;7.846;2022-12-20T17:28:51;9.80;99.90
30336;DHT22;17142;47.990;7.846;2022-12-20T17:31:35;9.80;99.90
30336;DHT22;17142;47.990;7.846;2022-12-20T17:36:40;9.80;99.90
30336;DHT22;17142;47.990;7.846;2022-12-20T17:39:05;9.90;99.90
30336;DHT22;17142;47.990;7.846;2022-12-20T17:41:32;9.90;99.90
30336;DHT22;17142;47.990;7.846;2022-12-20T17:43:59;9.90;99.90
30336;DHT22;17142;47.990;7.846;2022-12-20T17:46:26;9.90;99.90
30336;DHT22;17142;47.990;7.846;2022-12-20T17:48:54;9.80;99.90
30336;DHT22;17142;47.990;7.846;2022-12-20T17:53:51;9.80;99.90
30336;DHT22;17142;47.990;7.846;2022-12-20T17:56:23;9.80;99.90
30336;DHT22;17142;47.990;7.846;2022-12-20T17:58:52;9.70;99.90
30336;DHT22;17142;47.990;7.846;2022-12-20T18:01:19;9.70;99.90
30336;DHT22;17142;47.990;7.846;2022-12-20T18:03:48;9.70;99.90
30336;DHT22;17142;47.990;7.846;2022-12-20T18:06:14;9.60;99.90
30336;DHT22;17142;47.990;7.846;2022-12-20T18:08:40;9.60;99.90
30336;DHT22;17142;47.990;7.846;2022-12-20T18:11:09;9.60;99.90
30336;DHT22;17142;47.990;7.846;2022-12-20T18:13:41;9.60;99.90
30336;DHT22;17142;47.990;7.846;2022-12-20T18:16:08;9.80;99.90
30336;DHT22;17142;47.990;7.846;2022-12-20T18:18:34;9.70;99.90
30336;DHT22;17142;47.990;7.846;2022-12-20T18:21:03;9.80;99.90
30336;DHT22;17142;47.990;7.846;2022-12-20T18:23:32;9.80;99.90
30336;DHT22;17142;47.990;7.846;2022-12-20T18:26:30;9.70;99.90
30336;DHT22;17142;47.990;7.846;2022-12-20T18:29:00;9.70;99.90
30336;DHT22;17142;47.990;7.846;2022-12-20T18:31:28;9.70;99.90
30336;DHT22;17142;47.990;7.846;2022-12-20T18:33:57;9.60;99.90